Rechercher aéroport 
image banner adimage banner adimage banner ad
image banner ad

KMPO - Pocono Mountains Muni

Situé à Mount Pocono, United States

ICAO - MPO, IATA -

Données fournies par Airmate  

Information générale

Coordonnées: N41°8'16" W75°22'48"
Élévation : 1915 feet MSL.
Variation magnétique : -13° East
Voir autres Aéroports à Pennsylvania

Données opérationnelles

Special qualification required
Heure actuelle UTC:
Heure actuelle locale:
Météo
METAR: KMPO 291400Z AUTO 17010G18KT 8SM OVC004 18/18 A3003 RMK AO2 T01830178
Voir NOTAMs / SUP AIP / TFR affectant cet aéroport [VIEW]
Fréquences de communication: [VIEW]

Pistes:

Identifiant RWYQFULongueur (ft)Largeur (ft)SurfaceLDA (ft)
0537°3999100ASPH
23217°3999100ASPH
13115°500175ASPH
31295°500175ASPH

Coordonnées de l'aéroport

Adresse: Mount Pocono United States

Autres services d'aviation

Écoles de pilotage

Moyer Aviation, Inc.

Moyer Aviation, Inc.
vern@moyeraviation.com+1(570)839-7161

Hi-Tech Helicopters, Inc

Hi-Tech Helicopters, Inc

Vue satellite de KMPO